sensor_id;sensor_type;location;lat;lon;timestamp;pressure;altitude;pressure_sealevel;temperature;humidity
80308;BME280;69616;43.522;1.348;2023-07-09T00:01:52;100041.22;;;25.83;51.97
80308;BME280;69616;43.522;1.348;2023-07-09T00:04:18;100039.50;;;25.82;51.90
80308;BME280;69616;43.522;1.348;2023-07-09T00:06:44;100042.22;;;25.82;51.81
80308;BME280;69616;43.522;1.348;2023-07-09T00:09:21;100041.47;;;25.79;52.70
80308;BME280;69616;43.522;1.348;2023-07-09T00:11:47;100040.19;;;25.72;52.71
80308;BME280;69616;43.522;1.348;2023-07-09T00:14:14;100043.53;;;25.63;52.96
80308;BME280;69616;43.522;1.348;2023-07-09T00:16:42;100037.38;;;25.61;52.68
80308;BME280;69616;43.522;1.348;2023-07-09T00:19:13;100042.91;;;25.59;53.17
80308;BME280;69616;43.522;1.348;2023-07-09T00:21:39;100044.72;;;25.59;52.79
80308;BME280;69616;43.522;1.348;2023-07-09T00:24:07;100043.75;;;25.60;53.00
80308;BME280;69616;43.522;1.348;2023-07-09T00:26:35;100037.59;;;25.58;53.59
80308;BME280;69616;43.522;1.348;2023-07-09T00:29:03;100035.88;;;25.57;53.32
80308;BME280;69616;43.522;1.348;2023-07-09T00:31:28;100040.59;;;25.53;53.64
80308;BME280;69616;43.522;1.348;2023-07-09T00:33:54;100039.00;;;25.50;53.41
80308;BME280;69616;43.522;1.348;2023-07-09T00:36:29;100038.25;;;25.48;54.34
80308;BME280;69616;43.522;1.348;2023-07-09T00:38:56;100039.22;;;25.47;53.87
80308;BME280;69616;43.522;1.348;2023-07-09T00:41:26;100033.06;;;25.45;54.00
80308;BME280;69616;43.522;1.348;2023-07-09T00:43:53;100031.34;;;25.44;53.67
80308;BME280;69616;43.522;1.348;2023-07-09T00:48:48;100028.06;;;25.39;54.43
80308;BME280;69616;43.522;1.348;2023-07-09T00:51:18;100028.94;;;25.40;54.04
80308;BME280;69616;43.522;1.348;2023-07-09T00:53:49;100024.63;;;25.37;54.55
80308;BME280;69616;43.522;1.348;2023-07-09T00:56:18;100023.13;;;25.33;54.46
80308;BME280;69616;43.522;1.348;2023-07-09T00:58:49;100020.75;;;25.28;54.45
80308;BME280;69616;43.522;1.348;2023-07-09T01:01:18;100015.47;;;25.27;54.65
80308;BME280;69616;43.522;1.348;2023-07-09T01:03:46;100011.28;;;25.22;54.43
80308;BME280;69616;43.522;1.348;2023-07-09T01:06:12;100006.94;;;25.20;54.92
80308;BME280;69616;43.522;1.348;2023-07-09T01:08:40;100006.06;;;25.19;55.01
80308;BME280;69616;43.522;1.348;2023-07-09T01:11:18;100007.16;;;25.17;54.84
80308;BME280;69616;43.522;1.348;2023-07-09T01:13:52;100005.44;;;25.16;55.02
80308;BME280;69616;43.522;1.348;2023-07-09T01:16:19;100003.72;;;25.15;55.45
80308;BME280;69616;43.522;1.348;2023-07-09T01:18:45;99999.19;;;25.15;55.09
80308;BME280;69616;43.522;1.348;2023-07-09T01:21:10;100009.09;;;25.15;55.24
80308;BME280;69616;43.522;1.348;2023-07-09T01:23:45;100003.81;;;25.13;55.31
80308;BME280;69616;43.522;1.348;2023-07-09T01:26:13;100004.78;;;25.12;55.68
80308;BME280;69616;43.522;1.348;2023-07-09T01:28:39;99999.72;;;25.07;55.31
80308;BME280;69616;43.522;1.348;2023-07-09T01:31:07;99992.72;;;25.05;55.50
80308;BME280;69616;43.522;1.348;2023-07-09T01:33:33;99992.81;;;25.03;55.60
80308;BME280;69616;43.522;1.348;2023-07-09T01:35:58;99997.34;;;25.03;55.79
80308;BME280;69616;43.522;1.348;2023-07-09T01:38:26;99997.13;;;25.06;55.79
80308;BME280;69616;43.522;1.348;2023-07-09T01:40:56;99992.41;;;24.97;55.51
80308;BME280;69616;43.522;1.348;2023-07-09T01:43:21;99980.09;;;24.92;55.44
80308;BME280;69616;43.522;1.348;2023-07-09T01:45:47;99989.13;;;24.91;55.82
80308;BME280;69616;43.522;1.348;2023-07-09T01:48:15;99973.94;;;24.90;55.62
80308;BME280;69616;43.522;1.348;2023-07-09T01:50:41;99974.06;;;24.89;55.80
80308;BME280;69616;43.522;1.348;2023-07-09T01:53:11;99972.34;;;24.88;55.26
80308;BME280;69616;43.522;1.348;2023-07-09T01:55:37;99981.47;;;24.85;55.52
80308;BME280;69616;43.522;1.348;2023-07-09T01:58:02;99979.75;;;24.84;55.45
80308;BME280;69616;43.522;1.348;2023-07-09T02:00:33;99984.19;;;24.85;55.71
80308;BME280;69616;43.522;1.348;2023-07-09T02:03:02;99987.75;;;24.86;55.54
80308;BME280;69616;43.522;1.348;2023-07-09T02:05:31;99981.56;;;24.84;55.99
80308;BME280;69616;43.522;1.348;2023-07-09T02:07:56;99980.19;;;24.78;55.71
80308;BME280;69616;43.522;1.348;2023-07-09T02:10:22;99978.66;;;24.74;56.08
80308;BME280;69616;43.522;1.348;2023-07-09T02:12:48;99980.75;;;24.69;55.88
80308;BME280;69616;43.522;1.348;2023-07-09T02:15:14;99986.38;;;24.65;56.17
80308;BME280;69616;43.522;1.348;2023-07-09T02:17:40;99981.94;;;24.64;55.94
80308;BME280;69616;43.522;1.348;2023-07-09T02:20:06;99988.31;;;24.63;56.36
80308;BME280;69616;43.522;1.348;2023-07-09T02:22:36;99974.09;;;24.61;55.99
80308;BME280;69616;43.522;1.348;2023-07-09T02:25:02;99976.09;;;24.58;56.38
80308;BME280;69616;43.522;1.348;2023-07-09T02:27:27;99978.81;;;24.58;56.05
80308;BME280;69616;43.522;1.348;2023-07-09T02:29:53;99968.91;;;24.58;56.29
80308;BME280;69616;43.522;1.348;2023-07-09T02:32:24;99974.28;;;24.58;56.38
80308;BME280;69616;43.522;1.348;2023-07-09T02:34:51;99969.13;;;24.55;56.80
80308;BME280;69616;43.522;1.348;2023-07-09T02:37:19;99969.22;;;24.54;56.83
80308;BME280;69616;43.522;1.348;2023-07-09T02:39:44;99972.13;;;24.50;56.74
80308;BME280;69616;43.522;1.348;2023-07-09T02:42:10;99971.88;;;24.41;57.04
80308;BME280;69616;43.522;1.348;2023-07-09T02:44:36;99977.47;;;24.37;57.46
80308;BME280;69616;43.522;1.348;2023-07-09T02:47:02;99973.13;;;24.35;57.74
80308;BME280;69616;43.522;1.348;2023-07-09T02:49:27;99974.00;;;24.35;57.41
80308;BME280;69616;43.522;1.348;2023-07-09T02:51:53;99976.69;;;24.35;57.78
80308;BME280;69616;43.522;1.348;2023-07-09T02:54:18;99973.25;;;24.33;57.92
80308;BME280;69616;43.522;1.348;2023-07-09T02:56:43;99967.19;;;24.30;57.84
80308;BME280;69616;43.522;1.348;2023-07-09T02:59:09;99961.34;;;24.23;58.18
80308;BME280;69616;43.522;1.348;2023-07-09T03:01:34;99966.94;;;24.20;58.76
80308;BME280;69616;43.522;1.348;2023-07-09T03:04:01;99985.78;;;24.20;58.50
80308;BME280;69616;43.522;1.348;2023-07-09T03:06:29;99996.75;;;24.17;58.96
80308;BME280;69616;43.522;1.348;2023-07-09T03:08:58;99995.13;;;24.14;58.94
80308;BME280;69616;43.522;1.348;2023-07-09T03:11:24;99998.00;;;24.11;59.38
80308;BME280;69616;43.522;1.348;2023-07-09T03:13:49;100000.13;;;24.06;59.38
80308;BME280;69616;43.522;1.348;2023-07-09T03:16:15;100009.16;;;24.05;59.43
80308;BME280;69616;43.522;1.348;2023-07-09T03:18:41;100021.97;;;24.01;59.89
80308;BME280;69616;43.522;1.348;2023-07-09T03:21:06;100024.44;;;23.90;60.24
80308;BME280;69616;43.522;1.348;2023-07-09T03:23:32;100014.94;;;23.84;60.24
80308;BME280;69616;43.522;1.348;2023-07-09T03:25:57;100022.16;;;23.84;60.43
80308;BME280;69616;43.522;1.348;2023-07-09T03:28:24;100033.88;;;23.83;60.73
80308;BME280;69616;43.522;1.348;2023-07-09T03:30:53;100034.06;;;23.79;60.84
80308;BME280;69616;43.522;1.348;2023-07-09T03:33:19;100038.56;;;23.79;60.54
80308;BME280;69616;43.522;1.348;2023-07-09T03:35:45;100039.44;;;23.79;60.64
80308;BME280;69616;43.522;1.348;2023-07-09T03:38:11;100036.28;;;23.73;60.73
80308;BME280;69616;43.522;1.348;2023-07-09T03:40:37;100033.66;;;23.71;61.22
80308;BME280;69616;43.522;1.348;2023-07-09T03:43:07;100036.75;;;23.65;61.29
80308;BME280;69616;43.522;1.348;2023-07-09T03:45:34;100030.81;;;23.60;61.46
80308;BME280;69616;43.522;1.348;2023-07-09T03:48:00;100028.50;;;23.54;61.60
80308;BME280;69616;43.522;1.348;2023-07-09T03:50:25;100036.72;;;23.50;61.77
80308;BME280;69616;43.522;1.348;2023-07-09T03:52:51;100025.13;;;23.50;61.75
80308;BME280;69616;43.522;1.348;2023-07-09T03:55:16;100023.13;;;23.54;61.56
80308;BME280;69616;43.522;1.348;2023-07-09T03:57:42;100027.53;;;23.55;61.95
80308;BME280;69616;43.522;1.348;2023-07-09T04:00:08;100029.47;;;23.53;61.47
80308;BME280;69616;43.522;1.348;2023-07-09T04:02:37;100031.19;;;23.54;61.72
80308;BME280;69616;43.522;1.348;2023-07-09T04:05:03;100029.28;;;23.56;61.78
80308;BME280;69616;43.522;1.348;2023-07-09T04:07:29;100031.97;;;23.56;61.63
80308;BME280;69616;43.522;1.348;2023-07-09T04:09:54;100036.38;;;23.57;61.77
80308;BME280;69616;43.522;1.348;2023-07-09T04:12:20;100034.44;;;23.59;61.86
80308;BME280;69616;43.522;1.348;2023-07-09T04:14:45;100032.53;;;23.61;61.76
80308;BME280;69616;43.522;1.348;2023-07-09T04:17:11;100026.19;;;23.62;61.66
80308;BME280;69616;43.522;1.348;2023-07-09T04:19:37;100029.66;;;23.64;61.64
80308;BME280;69616;43.522;1.348;2023-07-09T04:22:02;100026.00;;;23.65;61.70
80308;BME280;69616;43.522;1.348;2023-07-09T04:24:28;100030.59;;;23.63;61.62
80308;BME280;69616;43.522;1.348;2023-07-09T04:26:53;100032.53;;;23.61;61.32
80308;BME280;69616;43.522;1.348;2023-07-09T04:29:22;100044.03;;;23.63;61.55
80308;BME280;69616;43.522;1.348;2023-07-09T04:31:47;100041.34;;;23.63;61.69
80308;BME280;69616;43.522;1.348;2023-07-09T04:34:12;100045.97;;;23.61;61.20
80308;BME280;69616;43.522;1.348;2023-07-09T04:36:38;100045.09;;;23.60;61.33
80308;BME280;69616;43.522;1.348;2023-07-09T04:39:03;100045.00;;;23.62;61.51
80308;BME280;69616;43.522;1.348;2023-07-09T04:41:29;100046.94;;;23.60;61.34
80308;BME280;69616;43.522;1.348;2023-07-09T04:43:55;100052.50;;;23.57;61.58
80308;BME280;69616;43.522;1.348;2023-07-09T04:46:20;100058.72;;;23.57;61.55
80308;BME280;69616;43.522;1.348;2023-07-09T04:48:45;100054.63;;;23.51;61.72
80308;BME280;69616;43.522;1.348;2023-07-09T04:51:11;100054.78;;;23.48;61.98
80308;BME280;69616;43.522;1.348;2023-07-09T04:53:36;100055.94;;;23.44;61.87
80308;BME280;69616;43.522;1.348;2023-07-09T04:56:02;100065.16;;;23.40;61.96
80308;BME280;69616;43.522;1.348;2023-07-09T04:58:28;100062.38;;;23.42;61.83
80308;BME280;69616;43.522;1.348;2023-07-09T05:00:57;100063.22;;;23.42;61.78
80308;BME280;69616;43.522;1.348;2023-07-09T05:03:22;100065.16;;;23.40;61.48
80308;BME280;69616;43.522;1.348;2023-07-09T05:05:48;100073.69;;;23.47;61.51
80308;BME280;69616;43.522;1.348;2023-07-09T05:08:14;100079.38;;;23.57;61.29
80308;BME280;69616;43.522;1.348;2023-07-09T05:10:48;100085.59;;;23.57;61.28
80308;BME280;69616;43.522;1.348;2023-07-09T05:13:15;100081.88;;;23.60;61.25
80308;BME280;69616;43.522;1.348;2023-07-09T05:15:44;100086.84;;;23.66;60.98
80308;BME280;69616;43.522;1.348;2023-07-09T05:18:11;100085.25;;;23.63;60.85
80308;BME280;69616;43.522;1.348;2023-07-09T05:20:36;100085.72;;;23.56;61.35
80308;BME280;69616;43.522;1.348;2023-07-09T05:23:02;100093.97;;;23.53;61.59
80308;BME280;69616;43.522;1.348;2023-07-09T05:25:28;100094.72;;;23.69;61.11
80308;BME280;69616;43.522;1.348;2023-07-09T05:27:53;100097.25;;;23.87;60.90
80308;BME280;69616;43.522;1.348;2023-07-09T05:30:19;100109.13;;;23.97;60.53
80308;BME280;69616;43.522;1.348;2023-07-09T05:32:45;100098.50;;;24.10;60.36
80308;BME280;69616;43.522;1.348;2023-07-09T05:35:10;100096.69;;;24.25;60.04
80308;BME280;69616;43.522;1.348;2023-07-09T05:37:36;100098.56;;;24.37;59.72
80308;BME280;69616;43.522;1.348;2023-07-09T05:40:03;100102.78;;;24.42;60.04
80308;BME280;69616;43.522;1.348;2023-07-09T05:42:30;100110.00;;;24.27;60.39
80308;BME280;69616;43.522;1.348;2023-07-09T05:44:56;100118.00;;;24.28;60.20
80308;BME280;69616;43.522;1.348;2023-07-09T05:47:21;100113.75;;;24.39;60.13
80308;BME280;69616;43.522;1.348;2023-07-09T05:49:47;100123.81;;;24.35;60.80
80308;BME280;69616;43.522;1.348;2023-07-09T05:52:15;100119.31;;;24.50;60.31
80308;BME280;69616;43.522;1.348;2023-07-09T05:54:40;100121.19;;;24.62;60.06
80308;BME280;69616;43.522;1.348;2023-07-09T05:57:06;100119.50;;;24.74;59.77
80308;BME280;69616;43.522;1.348;2023-07-09T05:59:31;100123.03;;;24.89;60.16
80308;BME280;69616;43.522;1.348;2023-07-09T06:01:57;100130.84;;;24.94;60.31
80308;BME280;69616;43.522;1.348;2023-07-09T06:04:22;100125.53;;;24.92;60.99
80308;BME280;69616;43.522;1.348;2023-07-09T06:06:47;100123.22;;;25.01;60.88
80308;BME280;69616;43.522;1.348;2023-07-09T06:09:13;100130.44;;;25.13;60.30
80308;BME280;69616;43.522;1.348;2023-07-09T06:11:38;100134.91;;;25.27;60.86
80308;BME280;69616;43.522;1.348;2023-07-09T06:14:03;100133.59;;;25.47;60.71
80308;BME280;69616;43.522;1.348;2023-07-09T06:16:29;100141.56;;;25.62;60.19
80308;BME280;69616;43.522;1.348;2023-07-09T06:18:54;100140.59;;;25.76;59.83
80308;BME280;69616;43.522;1.348;2023-07-09T06:21:20;100133.59;;;25.86;60.36
80308;BME280;69616;43.522;1.348;2023-07-09T06:23:46;100132.09;;;25.95;60.15
80308;BME280;69616;43.522;1.348;2023-07-09T06:26:12;100135.75;;;25.94;60.88
80308;BME280;69616;43.522;1.348;2023-07-09T06:28:37;100147.84;;;26.01;60.57
80308;BME280;69616;43.522;1.348;2023-07-09T06:31:03;100153.22;;;26.14;60.87
80308;BME280;69616;43.522;1.348;2023-07-09T06:33:28;100150.31;;;26.30;60.82
80308;BME280;69616;43.522;1.348;2023-07-09T06:35:57;100159.66;;;26.50;60.61
80308;BME280;69616;43.522;1.348;2023-07-09T06:38:23;100149.69;;;26.64;60.23
80308;BME280;69616;43.522;1.348;2023-07-09T06:40:48;100156.25;;;26.73;60.13
80308;BME280;69616;43.522;1.348;2023-07-09T06:43:14;100153.97;;;26.79;60.11
80308;BME280;69616;43.522;1.348;2023-07-09T06:45:48;100154.91;;;26.91;60.19
80308;BME280;69616;43.522;1.348;2023-07-09T06:48:13;100162.56;;;26.98;60.11
80308;BME280;69616;43.522;1.348;2023-07-09T06:50:38;100156.28;;;26.97;59.89
80308;BME280;69616;43.522;1.348;2023-07-09T06:53:04;100159.09;;;26.96;59.91
80308;BME280;69616;43.522;1.348;2023-07-09T06:55:29;100158.69;;;26.89;60.25
80308;BME280;69616;43.522;1.348;2023-07-09T06:57:55;100163.66;;;26.82;60.02
80308;BME280;69616;43.522;1.348;2023-07-09T07:00:21;100170.50;;;26.75;60.23
80308;BME280;69616;43.522;1.348;2023-07-09T07:02:46;100169.28;;;26.79;60.70
80308;BME280;69616;43.522;1.348;2023-07-09T07:05:11;100167.69;;;26.89;60.62
80308;BME280;69616;43.522;1.348;2023-07-09T07:07:37;100171.88;;;26.93;60.24
80308;BME280;69616;43.522;1.348;2023-07-09T07:10:02;100173.63;;;27.06;59.84
80308;BME280;69616;43.522;1.348;2023-07-09T07:12:29;100178.47;;;27.14;60.15
80308;BME280;69616;43.522;1.348;2023-07-09T07:14:55;100177.66;;;27.00;60.22
80308;BME280;69616;43.522;1.348;2023-07-09T07:17:21;100185.94;;;26.86;60.27
80308;BME280;69616;43.522;1.348;2023-07-09T07:19:46;100185.94;;;26.86;60.61
80308;BME280;69616;43.522;1.348;2023-07-09T07:22:12;100195.03;;;26.85;60.33
80308;BME280;69616;43.522;1.348;2023-07-09T07:24:38;100191.41;;;26.84;60.52
80308;BME280;69616;43.522;1.348;2023-07-09T07:27:03;100196.75;;;26.86;60.05
80308;BME280;69616;43.522;1.348;2023-07-09T07:29:29;100203.19;;;26.83;60.17
80308;BME280;69616;43.522;1.348;2023-07-09T07:31:54;100203.97;;;26.85;60.56
80308;BME280;69616;43.522;1.348;2023-07-09T07:34:20;100210.13;;;26.87;60.30
80308;BME280;69616;43.522;1.348;2023-07-09T07:36:45;100220.38;;;26.82;60.24
80308;BME280;69616;43.522;1.348;2023-07-09T07:39:11;100221.38;;;26.81;60.80
80308;BME280;69616;43.522;1.348;2023-07-09T07:41:36;100218.66;;;26.94;60.38
80308;BME280;69616;43.522;1.348;2023-07-09T07:44:01;100221.38;;;27.18;59.61
80308;BME280;69616;43.522;1.348;2023-07-09T07:46:27;100221.34;;;27.43;59.62
80308;BME280;69616;43.522;1.348;2023-07-09T07:48:54;100234.00;;;27.67;59.01
80308;BME280;69616;43.522;1.348;2023-07-09T07:51:19;100234.97;;;27.90;59.03
80308;BME280;69616;43.522;1.348;2023-07-09T07:53:47;100243.22;;;28.11;58.10
80308;BME280;69616;43.522;1.348;2023-07-09T07:56:14;100245.13;;;28.22;57.69
80308;BME280;69616;43.522;1.348;2023-07-09T07:58:39;100241.81;;;28.30;57.56
80308;BME280;69616;43.522;1.348;2023-07-09T08:01:05;100242.19;;;28.36;57.34
80308;BME280;69616;43.522;1.348;2023-07-09T08:03:30;100252.03;;;28.49;57.50
80308;BME280;69616;43.522;1.348;2023-07-09T08:05:55;100242.41;;;28.56;57.12
80308;BME280;69616;43.522;1.348;2023-07-09T08:08:21;100251.66;;;28.65;56.74
80308;BME280;69616;43.522;1.348;2023-07-09T08:10:46;100256.22;;;28.64;56.82
80308;BME280;69616;43.522;1.348;2023-07-09T08:13:12;100260.88;;;28.74;56.27
80308;BME280;69616;43.522;1.348;2023-07-09T08:15:38;100267.91;;;28.88;55.91
80308;BME280;69616;43.522;1.348;2023-07-09T08:18:04;100270.25;;;28.81;55.12
80308;BME280;69616;43.522;1.348;2023-07-09T08:20:29;100273.31;;;28.65;55.12
80308;BME280;69616;43.522;1.348;2023-07-09T08:22:55;100275.53;;;28.60;55.19
80308;BME280;69616;43.522;1.348;2023-07-09T08:25:20;100287.84;;;28.64;55.40
80308;BME280;69616;43.522;1.348;2023-07-09T08:27:45;100277.41;;;28.71;55.05
80308;BME280;69616;43.522;1.348;2023-07-09T08:30:11;100273.97;;;28.80;55.17
80308;BME280;69616;43.522;1.348;2023-07-09T08:32:36;100275.06;;;28.89;54.84
80308;BME280;69616;43.522;1.348;2023-07-09T08:35:02;100276.31;;;28.96;54.75
80308;BME280;69616;43.522;1.348;2023-07-09T08:37:28;100270.38;;;29.02;54.37
80308;BME280;69616;43.522;1.348;2023-07-09T08:39:53;100286.84;;;29.11;54.34
80308;BME280;69616;43.522;1.348;2023-07-09T08:42:37;100283.31;;;29.10;54.07
80308;BME280;69616;43.522;1.348;2023-07-09T08:48:20;100291.19;;;29.02;53.90
80308;BME280;69616;43.522;1.348;2023-07-09T08:50:57;100292.94;;;28.80;54.21
80308;BME280;69616;43.522;1.348;2023-07-09T08:53:37;100295.84;;;28.54;54.45
80308;BME280;69616;43.522;1.348;2023-07-09T08:56:03;100292.66;;;28.38;55.17
80308;BME280;69616;43.522;1.348;2023-07-09T08:58:31;100296.56;;;28.33;54.98
80308;BME280;69616;43.522;1.348;2023-07-09T09:00:59;100293.13;;;28.31;55.46
80308;BME280;69616;43.522;1.348;2023-07-09T09:06:15;100296.34;;;28.36;55.34
80308;BME280;69616;43.522;1.348;2023-07-09T09:08:58;100294.97;;;28.31;55.24
80308;BME280;69616;43.522;1.348;2023-07-09T09:11:37;100300.50;;;28.18;55.52
80308;BME280;69616;43.522;1.348;2023-07-09T09:14:25;100303.66;;;28.12;55.56
80308;BME280;69616;43.522;1.348;2023-07-09T09:16:52;100298.25;;;28.12;55.98
80308;BME280;69616;43.522;1.348;2023-07-09T09:19:23;100293.47;;;28.15;55.81
80308;BME280;69616;43.522;1.348;2023-07-09T09:24:31;100300.78;;;28.49;55.64
80308;BME280;69616;43.522;1.348;2023-07-09T09:26:58;100307.44;;;28.68;55.00
80308;BME280;69616;43.522;1.348;2023-07-09T09:29:25;100298.34;;;28.91;54.63
80308;BME280;69616;43.522;1.348;2023-07-09T09:31:54;100302.03;;;29.02;54.23
80308;BME280;69616;43.522;1.348;2023-07-09T09:34:29;100302.88;;;29.25;53.85
80308;BME280;69616;43.522;1.348;2023-07-09T09:36:57;100298.13;;;29.50;53.55
80308;BME280;69616;43.522;1.348;2023-07-09T09:39:24;100305.41;;;29.49;53.18
80308;BME280;69616;43.522;1.348;2023-07-09T09:41:54;100306.16;;;29.40;53.24
80308;BME280;69616;43.522;1.348;2023-07-09T09:44:25;100312.97;;;29.23;53.72
80308;BME280;69616;43.522;1.348;2023-07-09T09:46:51;100307.56;;;29.12;53.95
80308;BME280;69616;43.522;1.348;2023-07-09T09:49:16;100321.41;;;28.97;54.17
80308;BME280;69616;43.522;1.348;2023-07-09T09:51:44;100319.53;;;28.98;54.12
80308;BME280;69616;43.522;1.348;2023-07-09T09:54:19;100318.50;;;29.21;54.00
80308;BME280;69616;43.522;1.348;2023-07-09T09:56:45;100323.69;;;29.25;53.57
80308;BME280;69616;43.522;1.348;2023-07-09T09:59:18;100328.63;;;29.19;53.87
80308;BME280;69616;43.522;1.348;2023-07-09T10:01:44;100328.53;;;29.21;53.93
80308;BME280;69616;43.522;1.348;2023-07-09T10:04:16;100337.00;;;29.28;53.80
80308;BME280;69616;43.522;1.348;2023-07-09T10:06:49;100335.03;;;29.41;53.80
80308;BME280;69616;43.522;1.348;2023-07-09T10:15:29;100343.66;;;29.35;53.50
80308;BME280;69616;43.522;1.348;2023-07-09T10:23:56;100331.06;;;29.45;53.48
80308;BME280;69616;43.522;1.348;2023-07-09T10:26:36;100332.88;;;29.56;52.86
80308;BME280;69616;43.522;1.348;2023-07-09T10:29:34;100341.41;;;29.51;52.94
80308;BME280;69616;43.522;1.348;2023-07-09T10:32:21;100335.59;;;29.68;52.64
80308;BME280;69616;43.522;1.348;2023-07-09T10:40:13;100344.78;;;29.76;52.81
80308;BME280;69616;43.522;1.348;2023-07-09T10:42:48;100337.31;;;29.69;52.55
80308;BME280;69616;43.522;1.348;2023-07-09T10:45:40;100339.69;;;29.83;52.47
80308;BME280;69616;43.522;1.348;2023-07-09T10:48:15;100340.97;;;30.00;51.78
80308;BME280;69616;43.522;1.348;2023-07-09T10:50:49;100334.47;;;30.03;51.57
80308;BME280;69616;43.522;1.348;2023-07-09T10:53:29;100336.25;;;30.14;51.56
80308;BME280;69616;43.522;1.348;2023-07-09T10:56:14;100334.59;;;30.22;51.39
80308;BME280;69616;43.522;1.348;2023-07-09T10:58:57;100334.88;;;30.19;51.79
80308;BME280;69616;43.522;1.348;2023-07-09T11:01:54;100338.16;;;30.02;51.97
80308;BME280;69616;43.522;1.348;2023-07-09T11:04:35;100340.03;;;29.90;51.88
80308;BME280;69616;43.522;1.348;2023-07-09T11:07:07;100333.09;;;30.08;52.11
80308;BME280;69616;43.522;1.348;2023-07-09T11:09:39;100336.06;;;30.27;52.19
80308;BME280;69616;43.522;1.348;2023-07-09T11:12:16;100332.25;;;30.60;51.77
80308;BME280;69616;43.522;1.348;2023-07-09T11:14:53;100336.63;;;30.73;50.98
80308;BME280;69616;43.522;1.348;2023-07-09T11:17:21;100332.09;;;30.83;51.17
80308;BME280;69616;43.522;1.348;2023-07-09T11:19:59;100328.75;;;31.01;50.31
80308;BME280;69616;43.522;1.348;2023-07-09T11:22:37;100324.38;;;31.19;49.67
80308;BME280;69616;43.522;1.348;2023-07-09T11:25:14;100324.69;;;31.36;49.45
80308;BME280;69616;43.522;1.348;2023-07-09T11:27:54;100317.69;;;31.63;48.94
80308;BME280;69616;43.522;1.348;2023-07-09T11:30:28;100320.16;;;31.86;48.44
80308;BME280;69616;43.522;1.348;2023-07-09T11:32:59;100312.72;;;31.98;48.11
80308;BME280;69616;43.522;1.348;2023-07-09T11:35:27;100310.00;;;31.88;48.51
80308;BME280;69616;43.522;1.348;2023-07-09T11:37:54;100306.97;;;31.91;48.73
80308;BME280;69616;43.522;1.348;2023-07-09T11:40:21;100302.38;;;32.11;48.15
80308;BME280;69616;43.522;1.348;2023-07-09T11:45:15;100301.84;;;32.55;47.11
80308;BME280;69616;43.522;1.348;2023-07-09T11:47:50;100296.63;;;32.72;47.19
80308;BME280;69616;43.522;1.348;2023-07-09T11:50:22;100298.00;;;32.86;46.41
80308;BME280;69616;43.522;1.348;2023-07-09T11:52:55;100295.94;;;32.70;45.75
80308;BME280;69616;43.522;1.348;2023-07-09T11:55:28;100291.75;;;32.65;46.86
80308;BME280;69616;43.522;1.348;2023-07-09T11:58:00;100299.06;;;32.75;46.23
80308;BME280;69616;43.522;1.348;2023-07-09T12:00:28;100301.88;;;32.83;47.02
80308;BME280;69616;43.522;1.348;2023-07-09T12:02:55;100303.88;;;32.91;46.75
80308;BME280;69616;43.522;1.348;2023-07-09T12:05:26;100296.28;;;32.95;45.93
80308;BME280;69616;43.522;1.348;2023-07-09T12:07:52;100305.47;;;32.93;45.42
80308;BME280;69616;43.522;1.348;2023-07-09T12:10:20;100293.63;;;33.03;45.74
80308;BME280;69616;43.522;1.348;2023-07-09T12:12:46;100297.00;;;33.15;45.85
80308;BME280;69616;43.522;1.348;2023-07-09T12:15:18;100292.50;;;33.24;45.76
80308;BME280;69616;43.522;1.348;2023-07-09T12:17:56;100286.81;;;33.35;45.59
80308;BME280;69616;43.522;1.348;2023-07-09T12:20:21;100278.16;;;33.40;45.39
80308;BME280;69616;43.522;1.348;2023-07-09T12:22:47;100277.91;;;33.33;45.44
80308;BME280;69616;43.522;1.348;2023-07-09T12:25:27;100274.16;;;33.34;45.86
80308;BME280;69616;43.522;1.348;2023-07-09T12:27:54;100272.03;;;33.56;45.28
80308;BME280;69616;43.522;1.348;2023-07-09T12:30:20;100270.59;;;33.70;44.84
80308;BME280;69616;43.522;1.348;2023-07-09T12:32:50;100271.53;;;33.78;44.77
80308;BME280;69616;43.522;1.348;2023-07-09T12:35:18;100278.47;;;33.91;44.63
80308;BME280;69616;43.522;1.348;2023-07-09T12:37:45;100270.81;;;33.95;44.36
80308;BME280;69616;43.522;1.348;2023-07-09T12:40:19;100273.25;;;33.79;44.45
80308;BME280;69616;43.522;1.348;2023-07-09T12:42:46;100279.28;;;33.83;44.57
80308;BME280;69616;43.522;1.348;2023-07-09T12:45:16;100271.69;;;33.95;44.46
80308;BME280;69616;43.522;1.348;2023-07-09T12:47:43;100273.38;;;34.14;44.23
80308;BME280;69616;43.522;1.348;2023-07-09T12:50:30;100266.78;;;34.25;44.05
80308;BME280;69616;43.522;1.348;2023-07-09T12:53:01;100264.84;;;34.44;44.13
80308;BME280;69616;43.522;1.348;2023-07-09T12:55:28;100271.28;;;34.61;43.06
80308;BME280;69616;43.522;1.348;2023-07-09T12:57:56;100265.00;;;34.69;43.05
80308;BME280;69616;43.522;1.348;2023-07-09T13:00:29;100263.63;;;34.73;42.48
80308;BME280;69616;43.522;1.348;2023-07-09T13:02:54;100270.97;;;34.72;43.15
80308;BME280;69616;43.522;1.348;2023-07-09T13:05:25;100265.56;;;34.81;43.33
80308;BME280;69616;43.522;1.348;2023-07-09T13:07:59;100274.44;;;34.83;42.13
80308;BME280;69616;43.522;1.348;2023-07-09T13:13:04;100263.63;;;35.16;41.92
80308;BME280;69616;43.522;1.348;2023-07-09T13:15:55;100254.03;;;35.20;42.23
80308;BME280;69616;43.522;1.348;2023-07-09T13:18:23;100262.47;;;35.35;42.12
80308;BME280;69616;43.522;1.348;2023-07-09T13:20:50;100264.50;;;35.25;42.14
80308;BME280;69616;43.522;1.348;2023-07-09T13:23:29;100272.66;;;35.08;42.42
80308;BME280;69616;43.522;1.348;2023-07-09T13:25:57;100267.81;;;34.85;42.39
80308;BME280;69616;43.522;1.348;2023-07-09T13:28:29;100269.81;;;34.83;41.70
80308;BME280;69616;43.522;1.348;2023-07-09T13:31:10;100261.31;;;34.95;42.29